Time;durP1;ratioP1;P1;durP2;ratioP2;P2;SDS_P1;SDS_P2;PMS_P1;PMS_P2;Temp;Humidity;BMP_temperature;BMP_pressure;BME280_temperature;BME280_humidity;BME280_pressure;Samples;Min_cycle;Max_cycle;Signal;HPM_P1;HPM_P2
2021/04/25 00:00:26;;;;;;;13.95;10.73;;;;;;;;;;10358654;28;20048;-59
2021/04/25 00:05:24;;;;;;;11.32;9.80;;;;;;;;;;10356799;28;20083;-58
2021/04/25 00:10:21;;;;;;;15.82;12.95;;;;;;;;;;10358382;28;20110;-59
2021/04/25 00:15:21;;;;;;;21.88;13.50;;;;;;;;;;10357770;28;20075;-58
2021/04/25 00:20:19;;;;;;;13.88;11.80;;;;;;;;;;10358244;28;20047;-58
2021/04/25 00:25:17;;;;;;;15.75;11.23;;;;;;;;;;10358013;28;20080;-58
2021/04/25 00:30:16;;;;;;;20.63;15.50;;;;;;;;;;10356264;28;20048;-59
2021/04/25 00:35:14;;;;;;;12.57;10.55;;;;;;;;;;10357803;28;20048;-58
2021/04/25 00:40:13;;;;;;;14.45;10.73;;;;;;;;;;10357686;28;20096;-58
2021/04/25 00:45:13;;;;;;;13.02;10.02;;;;;;;;;;10357560;28;20084;-59
2021/04/25 00:50:10;;;;;;;13.93;10.10;;;;;;;;;;10357659;28;20388;-58
2021/04/25 00:55:10;;;;;;;13.48;10.93;;;;;;;;;;10355665;28;20043;-59
2021/04/25 01:00:08;;;;;;;12.30;10.75;;;;;;;;;;10356206;28;20086;-58
2021/04/25 01:05:07;;;;;;;10.50;9.25;;;;;;;;;;10356185;28;20076;-59
2021/04/25 01:10:05;;;;;;;13.00;10.55;;;;;;;;;;10357399;28;20048;-58
2021/04/25 01:15:04;;;;;;;13.95;10.27;;;;;;;;;;10356969;28;20040;-59
2021/04/25 01:20:02;;;;;;;11.30;9.85;;;;;;;;;;10362085;28;20086;-57
2021/04/25 01:25:01;;;;;;;13.82;9.82;;;;;;;;;;10364276;28;20090;-59
2021/04/25 01:29:58;;;;;;;15.20;11.07;;;;;;;;;;10363043;28;20044;-59
2021/04/25 01:34:56;;;;;;;14.85;10.98;;;;;;;;;;10363941;28;20040;-59
2021/04/25 01:39:53;;;;;;;12.18;10.85;;;;;;;;;;10362815;28;20420;-58
2021/04/25 01:44:51;;;;;;;12.05;10.85;;;;;;;;;;10363391;28;20075;-59
2021/04/25 01:49:49;;;;;;;13.40;10.30;;;;;;;;;;10362357;28;20048;-60
2021/04/25 01:54:46;;;;;;;13.15;10.77;;;;;;;;;;10363097;28;20040;-58
2021/04/25 01:59:44;;;;;;;16.17;11.65;;;;;;;;;;10361805;28;20121;-59
2021/04/25 02:04:42;;;;;;;14.05;11.52;;;;;;;;;;10362876;28;20080;-59
2021/04/25 02:09:39;;;;;;;11.80;10.38;;;;;;;;;;10362493;28;20048;-57
2021/04/25 02:14:37;;;;;;;13.68;10.63;;;;;;;;;;10362180;28;20446;-57
2021/04/25 02:19:34;;;;;;;12.45;11.05;;;;;;;;;;10362063;28;20299;-56
2021/04/25 02:24:32;;;;;;;16.20;11.07;;;;;;;;;;10361916;28;20510;-56
2021/04/25 02:29:30;;;;;;;13.45;11.43;;;;;;;;;;10361241;28;20074;-57
2021/04/25 02:34:27;;;;;;;15.73;11.73;;;;;;;;;;10361510;28;20040;-57
2021/04/25 02:39:25;;;;;;;12.35;10.60;;;;;;;;;;10361058;28;20485;-57
2021/04/25 02:44:23;;;;;;;13.88;10.02;;;;;;;;;;10360937;28;20047;-58
2021/04/25 02:49:20;;;;;;;12.05;10.75;;;;;;;;;;10361024;28;20044;-59
2021/04/25 02:54:18;;;;;;;13.95;12.55;;;;;;;;;;10360670;28;20079;-56
2021/04/25 02:59:15;;;;;;;12.15;10.82;;;;;;;;;;10359319;28;20064;-57
2021/04/25 03:04:13;;;;;;;11.75;10.57;;;;;;;;;;10360097;28;20040;-57
2021/04/25 03:09:10;;;;;;;12.05;10.27;;;;;;;;;;10359978;28;20090;-60
2021/04/25 03:14:08;;;;;;;12.73;11.43;;;;;;;;;;10359573;28;20040;-57
2021/04/25 03:19:06;;;;;;;20.20;18.23;;;;;;;;;;10359633;28;20074;-58
2021/04/25 03:24:04;;;;;;;17.42;12.35;;;;;;;;;;10359528;28;20043;-57
2021/04/25 03:29:02;;;;;;;12.40;11.20;;;;;;;;;;10359662;28;20080;-58
2021/04/25 03:33:59;;;;;;;15.48;13.77;;;;;;;;;;10359409;28;20467;-58
2021/04/25 03:38:56;;;;;;;15.10;12.38;;;;;;;;;;10358154;28;20052;-58
2021/04/25 03:43:55;;;;;;;14.70;12.38;;;;;;;;;;10357970;28;20048;-58
2021/04/25 03:48:52;;;;;;;15.30;13.32;;;;;;;;;;10358491;28;20078;-58
2021/04/25 03:53:49;;;;;;;14.77;12.60;;;;;;;;;;10358518;28;20531;-59
2021/04/25 03:58:47;;;;;;;19.38;12.07;;;;;;;;;;10358385;28;20114;-57
2021/04/25 04:03:45;;;;;;;13.73;11.35;;;;;;;;;;10357545;28;20505;-57
2021/04/25 04:08:44;;;;;;;16.83;12.70;;;;;;;;;;10358556;28;20130;-58
2021/04/25 04:13:42;;;;;;;13.77;12.30;;;;;;;;;;10357105;28;20067;-58
2021/04/25 04:18:39;;;;;;;19.15;14.23;;;;;;;;;;10357833;28;20040;-58
2021/04/25 04:23:37;;;;;;;13.23;11.88;;;;;;;;;;10357645;28;20072;-58
2021/04/25 04:28:34;;;;;;;14.25;12.82;;;;;;;;;;10357599;28;20556;-56
2021/04/25 04:33:32;;;;;;;16.42;13.90;;;;;;;;;;10356104;28;20044;-58
2021/04/25 04:38:30;;;;;;;16.73;14.43;;;;;;;;;;10356597;28;20229;-59
2021/04/25 04:43:28;;;;;;;18.52;16.40;;;;;;;;;;10356571;28;20490;-58
2021/04/25 04:48:26;;;;;;;17.77;15.52;;;;;;;;;;10355377;28;20094;-59
2021/04/25 04:53:23;;;;;;;17.20;15.40;;;;;;;;;;10360141;28;20044;-58
2021/04/25 04:58:20;;;;;;;27.77;23.48;;;;;;;;;;10365082;28;20055;-58
2021/04/25 05:03:18;;;;;;;28.23;18.70;;;;;;;;;;10364848;28;20067;-58
2021/04/25 05:08:16;;;;;;;23.35;19.17;;;;;;;;;;10364559;28;20501;-56
2021/04/25 05:13:13;;;;;;;24.92;22.20;;;;;;;;;;10362911;28;20048;-58
2021/04/25 05:18:10;;;;;;;24.77;21.70;;;;;;;;;;10363554;28;20052;-58
2021/04/25 05:23:08;;;;;;;33.30;21.70;;;;;;;;;;10364185;28;20091;-58
2021/04/25 05:28:06;;;;;;;25.90;21.67;;;;;;;;;;10363776;28;20526;-59
2021/04/25 05:33:03;;;;;;;17.75;13.77;;;;;;;;;;10363161;28;20052;-58
2021/04/25 05:38:01;;;;;;;14.27;11.00;;;;;;;;;;10350921;28;20067;-59
2021/04/25 05:42:59;;;;;;;13.50;12.00;;;;;;;;;;10325837;28;20441;-58
2021/04/25 05:47:57;;;;;;;22.58;18.88;;;;;;;;;;10335569;28;20075;-59
2021/04/25 05:52:55;;;;;;;18.85;15.77;;;;;;;;;;10355429;28;20514;-59
2021/04/25 05:57:52;;;;;;;17.75;15.75;;;;;;;;;;10320265;28;20525;-59
2021/04/25 06:02:51;;;;;;;21.02;15.18;;;;;;;;;;10324839;28;20088;-59
2021/04/25 06:07:50;;;;;;;23.58;16.73;;;;;;;;;;10342534;28;21966;-59
2021/04/25 06:12:49;;;;;;;21.38;14.68;;;;;;;;;;10349829;28;20072;-59
2021/04/25 06:17:46;;;;;;;25.02;14.30;;;;;;;;;;10360426;28;20075;-59
2021/04/25 06:22:45;;;;;;;20.38;14.32;;;;;;;;;;10359949;28;20048;-60
2021/04/25 06:27:42;;;;;;;24.88;15.48;;;;;;;;;;10359935;28;20055;-60
2021/04/25 06:32:40;;;;;;;30.27;17.33;;;;;;;;;;10353035;28;20581;-59
2021/04/25 06:37:38;;;;;;;25.75;14.75;;;;;;;;;;10338202;28;20535;-59
2021/04/25 06:42:39;;;;;;;20.13;14.60;;;;;;;;;;10332468;28;20055;-59
2021/04/25 06:47:36;;;;;;;17.75;14.65;;;;;;;;;;10334719;28;20476;-59
2021/04/25 06:52:34;;;;;;;18.95;14.10;;;;;;;;;;10326859;28;20080;-58
2021/04/25 06:57:31;;;;;;;21.23;15.57;;;;;;;;;;10315254;28;20080;-59
2021/04/25 07:02:30;;;;;;;60.72;36.03;;;;;;;;;;10319111;28;20442;-59
2021/04/25 07:07:28;;;;;;;33.00;23.27;;;;;;;;;;10329752;28;20485;-59
2021/04/25 07:12:25;;;;;;;24.35;20.35;;;;;;;;;;10334544;28;20069;-60
2021/04/25 07:17:22;;;;;;;6.82;5.88;;;;;;;;;;10331986;28;20072;-60
2021/04/25 07:22:20;;;;;;;4.88;4.30;;;;;;;;;;10339699;28;20523;-59
2021/04/25 07:27:18;;;;;;;5.68;3.78;;;;;;;;;;10344418;28;20080;-61
2021/04/25 07:32:16;;;;;;;5.90;3.67;;;;;;;;;;10317950;28;20048;-60
2021/04/25 07:37:14;;;;;;;6.53;3.60;;;;;;;;;;10317268;28;20087;-59
2021/04/25 07:42:12;;;;;;;4.38;3.17;;;;;;;;;;10323089;28;20082;-60
2021/04/25 07:47:09;;;;;;;7.18;3.72;;;;;;;;;;10317031;28;20083;-59
2021/04/25 07:52:07;;;;;;;3.13;2.63;;;;;;;;;;10302346;28;20360;-60
2021/04/25 07:57:04;;;;;;;5.60;2.88;;;;;;;;;;10327461;28;20505;-60
2021/04/25 08:02:03;;;;;;;4.63;2.50;;;;;;;;;;10327956;28;20076;-61
2021/04/25 08:07:00;;;;;;;7.95;2.65;;;;;;;;;;10337114;28;20079;-61
2021/04/25 08:11:58;;;;;;;3.50;2.47;;;;;;;;;;10334774;28;20075;-60
2021/04/25 08:16:55;;;;;;;5.25;2.70;;;;;;;;;;10318109;28;20067;-59
2021/04/25 08:21:53;;;;;;;8.40;3.30;;;;;;;;;;10320653;28;20430;-59
2021/04/25 08:26:52;;;;;;;7.63;2.83;;;;;;;;;;10343860;28;20086;-60
2021/04/25 08:31:53;;;;;;;3.95;2.53;;;;;;;;;;10338657;28;20051;-60
2021/04/25 08:36:50;;;;;;;3.85;2.60;;;;;;;;;;10350135;28;20083;-60
2021/04/25 08:41:49;;;;;;;4.68;2.45;;;;;;;;;;10338769;28;20077;-59
2021/04/25 08:46:46;;;;;;;5.40;2.78;;;;;;;;;;10348941;28;20084;-61
2021/04/25 08:51:44;;;;;;;4.93;3.10;;;;;;;;;;10338897;28;20040;-60
2021/04/25 08:56:42;;;;;;;2.90;2.60;;;;;;;;;;10352415;28;20087;-59
2021/04/25 09:01:40;;;;;;;6.65;2.88;;;;;;;;;;10339521;28;20059;-60
2021/04/25 09:06:52;;;;;;;12.75;8.98;;;;;;;;;;10347510;28;20087;-59
2021/04/25 09:11:50;;;;;;;7.43;2.63;;;;;;;;;;10337480;28;20041;-60
2021/04/25 09:16:58;;;;;;;7.80;3.28;;;;;;;;;;10348059;28;20500;-60
2021/04/25 09:21:57;;;;;;;4.80;2.22;;;;;;;;;;10336224;28;20045;-59
2021/04/25 09:26:54;;;;;;;4.53;2.42;;;;;;;;;;10349129;28;20083;-59
2021/04/25 09:31:52;;;;;;;10.88;4.13;;;;;;;;;;10345221;28;20071;-62
2021/04/25 09:36:51;;;;;;;7.63;3.47;;;;;;;;;;10336569;28;20065;-60
2021/04/25 09:41:48;;;;;;;14.75;4.00;;;;;;;;;;10345879;28;20048;-61
2021/04/25 09:46:52;;;;;;;5.63;4.35;;;;;;;;;;10336865;28;20300;-60
2021/04/25 09:51:49;;;;;;;3.47;2.30;;;;;;;;;;10343973;28;20044;-60
2021/04/25 09:56:48;;;;;;;3.97;3.05;;;;;;;;;;10333247;28;20099;-60
2021/04/25 10:01:45;;;;;;;3.08;2.10;;;;;;;;;;10344452;28;20048;-61
2021/04/25 10:06:48;;;;;;;8.57;4.63;;;;;;;;;;10336317;28;20087;-61
2021/04/25 10:11:45;;;;;;;9.68;7.40;;;;;;;;;;10345173;28;20523;-60
2021/04/25 10:16:44;;;;;;;10.77;8.98;;;;;;;;;;10336194;28;20083;-60
2021/04/25 10:21:44;;;;;;;4.53;2.45;;;;;;;;;;10343953;28;20072;-60
2021/04/25 10:26:47;;;;;;;7.57;3.88;;;;;;;;;;10336004;28;20080;-60
2021/04/25 10:31:46;;;;;;;11.55;2.63;;;;;;;;;;10344720;28;20080;-59
2021/04/25 10:36:57;;;;;;;3.08;2.30;;;;;;;;;;10334949;28;20413;-60
2021/04/25 10:42:24;;;;;;;3.47;2.45;;;;;;;;;;10345084;28;20079;-59
2021/04/25 10:47:22;;;;;;;3.20;2.58;;;;;;;;;;10329290;28;20064;-61
2021/04/25 10:52:22;;;;;;;9.95;3.72;;;;;;;;;;10320687;28;20084;-60
2021/04/25 10:57:20;;;;;;;3.83;2.35;;;;;;;;;;10317674;28;20088;-59
2021/04/25 11:02:37;;;;;;;3.67;2.47;;;;;;;;;;10316990;28;20498;-60
2021/04/25 11:07:45;;;;;;;5.85;2.67;;;;;;;;;;10316058;28;20469;-60
2021/04/25 11:12:45;;;;;;;3.15;2.55;;;;;;;;;;10318432;28;20059;-60
2021/04/25 11:17:42;;;;;;;6.22;2.40;;;;;;;;;;10317452;28;20039;-61
2021/04/25 11:22:43;;;;;;;29.92;22.98;;;;;;;;;;10318361;28;20048;-61
2021/04/25 11:27:42;;;;;;;3.55;2.67;;;;;;;;;;10317766;28;20477;-59
2021/04/25 11:32:40;;;;;;;5.75;2.75;;;;;;;;;;10317652;28;20048;-60
2021/04/25 11:37:39;;;;;;;10.52;7.25;;;;;;;;;;10316132;28;20049;-60
2021/04/25 11:42:37;;;;;;;4.95;3.15;;;;;;;;;;10317637;28;20087;-60
2021/04/25 11:47:36;;;;;;;4.95;4.00;;;;;;;;;;10317397;28;20158;-60
2021/04/25 11:52:35;;;;;;;4.32;2.53;;;;;;;;;;10317129;28;20393;-60
2021/04/25 11:57:34;;;;;;;8.82;3.20;;;;;;;;;;10316590;28;20525;-59
2021/04/25 12:02:33;;;;;;;5.47;3.25;;;;;;;;;;10315063;28;20055;-59
2021/04/25 12:07:32;;;;;;;3.45;2.13;;;;;;;;;;10316662;28;20305;-60
2021/04/25 12:12:29;;;;;;;5.60;3.55;;;;;;;;;;10316736;28;20044;-59
2021/04/25 12:17:27;;;;;;;4.97;3.42;;;;;;;;;;10316693;28;20076;-60
2021/04/25 12:22:24;;;;;;;3.05;2.67;;;;;;;;;;10316751;28;20472;-60
2021/04/25 12:27:22;;;;;;;4.55;2.38;;;;;;;;;;10315880;28;20087;-60
2021/04/25 12:32:21;;;;;;;5.28;3.63;;;;;;;;;;10316450;28;20072;-60
2021/04/25 12:37:19;;;;;;;9.00;4.88;;;;;;;;;;10316267;28;20052;-59
2021/04/25 12:42:20;;;;;;;7.45;4.15;;;;;;;;;;10314430;28;20506;-60
2021/04/25 12:47:28;;;;;;;8.20;5.13;;;;;;;;;;10315852;28;20091;-60
2021/04/25 12:52:43;;;;;;;6.28;3.50;;;;;;;;;;10316237;28;20053;-61
2021/04/25 12:57:41;;;;;;;4.97;2.65;;;;;;;;;;10315518;28;20091;-61
2021/04/25 13:02:39;;;;;;;6.35;2.70;;;;;;;;;;10315604;28;20048;-59
2021/04/25 13:07:41;;;;;;;3.63;2.10;;;;;;;;;;10315552;28;20330;-59
2021/04/25 13:12:39;;;;;;;6.90;3.38;;;;;;;;;;10317070;28;20044;-59
2021/04/25 13:17:38;;;;;;;4.90;3.50;;;;;;;;;;10323009;28;20076;-60
2021/04/25 13:22:36;;;;;;;5.90;3.17;;;;;;;;;;10322565;28;20375;-60
2021/04/25 13:27:33;;;;;;;4.10;2.58;;;;;;;;;;10321058;28;20091;-60
2021/04/25 13:32:31;;;;;;;4.95;3.38;;;;;;;;;;10322384;28;20071;-59
2021/04/25 13:37:28;;;;;;;7.57;5.10;;;;;;;;;;10333292;28;20075;-59
2021/04/25 13:42:26;;;;;;;9.27;3.63;;;;;;;;;;10336001;28;20063;-61
2021/04/25 13:47:24;;;;;;;3.28;2.50;;;;;;;;;;10347430;28;20079;-61
2021/04/25 13:52:21;;;;;;;4.85;3.47;;;;;;;;;;10335812;28;20080;-60
2021/04/25 13:57:20;;;;;;;4.13;2.70;;;;;;;;;;10346481;28;20087;-60
2021/04/25 14:02:18;;;;;;;8.00;4.05;;;;;;;;;;10335878;28;20059;-59
2021/04/25 14:07:16;;;;;;;5.68;2.20;;;;;;;;;;10345633;28;20071;-61
2021/04/25 14:12:13;;;;;;;4.20;3.20;;;;;;;;;;10336514;28;20072;-61
2021/04/25 14:17:11;;;;;;;3.42;2.45;;;;;;;;;;10344404;28;20083;-59
2021/04/25 14:22:09;;;;;;;4.65;3.78;;;;;;;;;;10333790;28;20071;-60
2021/04/25 14:27:06;;;;;;;4.18;2.88;;;;;;;;;;10335140;28;20083;-59
2021/04/25 14:32:04;;;;;;;6.25;4.00;;;;;;;;;;10336854;28;20083;-61
2021/04/25 14:37:02;;;;;;;7.78;3.53;;;;;;;;;;10332651;28;20048;-61
2021/04/25 14:42:01;;;;;;;3.15;2.65;;;;;;;;;;10335690;28;20036;-60
2021/04/25 14:46:58;;;;;;;8.55;2.83;;;;;;;;;;10330617;28;20076;-61
2021/04/25 14:51:55;;;;;;;7.80;5.15;;;;;;;;;;10334940;28;20453;-61
2021/04/25 14:56:53;;;;;;;5.63;2.60;;;;;;;;;;10329227;28;20080;-62
2021/04/25 15:01:51;;;;;;;10.65;6.13;;;;;;;;;;10324958;28;20051;-60
2021/04/25 15:06:49;;;;;;;3.03;2.40;;;;;;;;;;10322044;28;20523;-60
2021/04/25 15:11:46;;;;;;;30.67;16.27;;;;;;;;;;10327832;28;20074;-60
2021/04/25 15:16:43;;;;;;;6.65;3.80;;;;;;;;;;10328991;28;20075;-59
2021/04/25 15:21:42;;;;;;;4.75;2.67;;;;;;;;;;10326405;28;20119;-61
2021/04/25 15:26:39;;;;;;;4.82;2.88;;;;;;;;;;10331910;28;20070;-61
2021/04/25 15:31:37;;;;;;;4.55;3.67;;;;;;;;;;10320994;28;20064;-60
2021/04/25 15:36:34;;;;;;;4.82;3.25;;;;;;;;;;10320273;28;20076;-60
2021/04/25 15:41:32;;;;;;;7.20;3.88;;;;;;;;;;10313574;28;20075;-61
2021/04/25 15:46:29;;;;;;;10.00;7.53;;;;;;;;;;10315911;28;20078;-60
2021/04/25 15:51:27;;;;;;;10.98;7.05;;;;;;;;;;10315012;28;20240;-60
2021/04/25 15:56:25;;;;;;;7.60;3.60;;;;;;;;;;10317498;28;20093;-60
2021/04/25 16:01:23;;;;;;;7.10;4.47;;;;;;;;;;10332384;28;20513;-60
2021/04/25 16:06:20;;;;;;;10.55;7.35;;;;;;;;;;10338765;28;20079;-61
2021/04/25 16:11:18;;;;;;;12.15;7.70;;;;;;;;;;10332662;28;20076;-61
2021/04/25 16:16:15;;;;;;;21.92;18.02;;;;;;;;;;10345118;28;20041;-60
2021/04/25 16:21:13;;;;;;;10.95;7.22;;;;;;;;;;10336607;28;20052;-61
2021/04/25 16:26:11;;;;;;;5.75;3.20;;;;;;;;;;10332038;28;20052;-61
2021/04/25 16:31:09;;;;;;;6.97;4.57;;;;;;;;;;10340684;28;20362;-61
2021/04/25 16:36:06;;;;;;;9.80;5.63;;;;;;;;;;10325267;28;20174;-61
2021/04/25 16:41:05;;;;;;;10.77;7.90;;;;;;;;;;10328721;28;20524;-61
2021/04/25 16:46:02;;;;;;;9.55;7.13;;;;;;;;;;10321435;28;20502;-61
2021/04/25 16:51:00;;;;;;;8.23;7.38;;;;;;;;;;10321081;28;20075;-61
2021/04/25 16:55:57;;;;;;;13.65;11.38;;;;;;;;;;10332702;28;20072;-61
2021/04/25 17:00:55;;;;;;;11.57;6.20;;;;;;;;;;10322013;28;20048;-60
2021/04/25 17:05:53;;;;;;;11.65;8.25;;;;;;;;;;10336577;28;20079;-61
2021/04/25 17:10:56;;;;;;;17.40;12.27;;;;;;;;;;10346236;28;20068;-59
2021/04/25 17:15:53;;;;;;;7.72;5.55;;;;;;;;;;10323246;28;20044;-60
2021/04/25 17:20:51;;;;;;;9.35;6.30;;;;;;;;;;10333500;28;20072;-58
2021/04/25 17:25:49;;;;;;;27.27;15.52;;;;;;;;;;10346887;28;20052;-60
2021/04/25 17:30:46;;;;;;;15.75;10.35;;;;;;;;;;10320266;28;20068;-59
2021/04/25 17:35:44;;;;;;;10.35;6.22;;;;;;;;;;10341478;28;20079;-60
2021/04/25 17:40:44;;;;;;;5.28;3.40;;;;;;;;;;10348686;28;20052;-61
2021/04/25 17:45:41;;;;;;;5.47;3.33;;;;;;;;;;10322514;28;20068;-60
2021/04/25 17:50:39;;;;;;;8.23;3.85;;;;;;;;;;10348383;28;20082;-60
2021/04/25 17:55:36;;;;;;;13.60;4.70;;;;;;;;;;10334544;28;20513;-60
2021/04/25 18:00:34;;;;;;;7.03;5.30;;;;;;;;;;10323593;28;20548;-59
2021/04/25 18:05:32;;;;;;;7.15;4.18;;;;;;;;;;10343159;28;20044;-61
2021/04/25 18:10:30;;;;;;;5.97;4.10;;;;;;;;;;10347621;28;20075;-57
2021/04/25 18:15:27;;;;;;;7.65;3.83;;;;;;;;;;10332879;28;20474;-59
2021/04/25 18:20:26;;;;;;;9.38;3.78;;;;;;;;;;10333677;28;20052;-60
2021/04/25 18:25:25;;;;;;;5.78;4.20;;;;;;;;;;10349950;28;20078;-59
2021/04/25 18:30:23;;;;;;;4.22;3.17;;;;;;;;;;10361581;28;20098;-60
2021/04/25 18:35:21;;;;;;;5.45;3.42;;;;;;;;;;10335682;28;20108;-60
2021/04/25 18:40:23;;;;;;;5.13;3.53;;;;;;;;;;10354674;28;20040;-59
2021/04/25 18:45:21;;;;;;;6.53;3.42;;;;;;;;;;10326341;28;20064;-60
2021/04/25 18:50:32;;;;;;;6.57;4.13;;;;;;;;;;10334650;28;20068;-59
2021/04/25 18:55:31;;;;;;;8.00;3.80;;;;;;;;;;10334493;28;20068;-59
2021/04/25 19:00:30;;;;;;;4.85;3.60;;;;;;;;;;10313931;28;20088;-59
2021/04/25 19:05:38;;;;;;;6.13;3.22;;;;;;;;;;10327454;28;20068;-59
2021/04/25 19:10:53;;;;;;;6.30;3.20;;;;;;;;;;10343249;28;20083;-59
2021/04/25 19:15:59;;;;;;;4.35;3.10;;;;;;;;;;10318063;28;20446;-59
2021/04/25 19:20:57;;;;;;;5.63;3.22;;;;;;;;;;10317861;28;20044;-58
2021/04/25 19:25:56;;;;;;;4.82;3.15;;;;;;;;;;10317451;28;20083;-59
2021/04/25 19:30:53;;;;;;;4.25;2.97;;;;;;;;;;10316478;28;20048;-59
2021/04/25 19:35:51;;;;;;;4.03;3.08;;;;;;;;;;10317258;28;20052;-57
2021/04/25 19:40:48;;;;;;;3.65;2.92;;;;;;;;;;10317996;28;20044;-58
2021/04/25 19:45:46;;;;;;;8.65;3.67;;;;;;;;;;10317424;28;20048;-60
2021/04/25 19:50:45;;;;;;;3.60;2.75;;;;;;;;;;10317079;28;20083;-59
2021/04/25 19:55:43;;;;;;;5.43;4.20;;;;;;;;;;10317180;28;20044;-58
2021/04/25 20:00:44;;;;;;;6.00;3.78;;;;;;;;;;10316701;28;20048;-60
2021/04/25 20:05:42;;;;;;;5.20;3.75;;;;;;;;;;10316928;28;20052;-58
2021/04/25 20:10:40;;;;;;;9.52;3.90;;;;;;;;;;10316240;28;20083;-59
2021/04/25 20:15:38;;;;;;;5.03;3.03;;;;;;;;;;10316727;28;20494;-59
2021/04/25 20:20:37;;;;;;;4.32;3.80;;;;;;;;;;10316435;28;20059;-59
2021/04/25 20:25:36;;;;;;;7.18;4.03;;;;;;;;;;10315582;28;20040;-58
2021/04/25 20:30:35;;;;;;;6.15;3.85;;;;;;;;;;10315884;28;20080;-59
2021/04/25 20:35:32;;;;;;;5.82;3.42;;;;;;;;;;10317228;28;20044;-59
2021/04/25 20:40:31;;;;;;;6.22;3.65;;;;;;;;;;10316947;28;20041;-58
2021/04/25 20:45:29;;;;;;;7.05;4.68;;;;;;;;;;10316991;28;20040;-59
2021/04/25 20:50:27;;;;;;;7.00;3.88;;;;;;;;;;10315817;28;20083;-59
2021/04/25 20:55:26;;;;;;;6.85;3.40;;;;;;;;;;10315474;28;20041;-58
2021/04/25 21:00:24;;;;;;;8.98;4.15;;;;;;;;;;10315893;28;20067;-59
2021/04/25 21:05:23;;;;;;;5.30;4.22;;;;;;;;;;10315212;28;20080;-58
2021/04/25 21:10:21;;;;;;;6.40;3.80;;;;;;;;;;10316158;28;20044;-59
2021/04/25 21:15:19;;;;;;;8.27;5.18;;;;;;;;;;10314757;28;20651;-58
2021/04/25 21:20:16;;;;;;;7.20;4.05;;;;;;;;;;10315076;28;20068;-59
2021/04/25 21:25:15;;;;;;;7.72;4.60;;;;;;;;;;10315966;28;20048;-59
2021/04/25 21:30:13;;;;;;;6.65;4.30;;;;;;;;;;10315751;28;20111;-59
2021/04/25 21:35:11;;;;;;;6.97;4.47;;;;;;;;;;10317968;28;20072;-59
2021/04/25 21:40:11;;;;;;;6.70;4.10;;;;;;;;;;10322913;28;20057;-59
2021/04/25 21:45:10;;;;;;;6.30;4.38;;;;;;;;;;10323059;28;20059;-58
2021/04/25 21:50:07;;;;;;;7.13;3.80;;;;;;;;;;10322511;28;20076;-59
2021/04/25 21:55:05;;;;;;;8.68;4.88;;;;;;;;;;10322201;28;20417;-59
2021/04/25 22:00:04;;;;;;;5.75;4.28;;;;;;;;;;10321566;28;20474;-59
2021/04/25 22:05:10;;;;;;;7.20;4.55;;;;;;;;;;10323363;28;20048;-57
2021/04/25 22:10:08;;;;;;;6.63;4.63;;;;;;;;;;10321811;28;20115;-58
2021/04/25 22:15:08;;;;;;;6.18;4.78;;;;;;;;;;10321626;28;20575;-59
2021/04/25 22:20:07;;;;;;;8.88;4.75;;;;;;;;;;10319508;28;20051;-59
2021/04/25 22:25:06;;;;;;;5.43;4.60;;;;;;;;;;10321369;28;20638;-58
2021/04/25 22:30:05;;;;;;;6.05;4.30;;;;;;;;;;10320906;28;20084;-58
2021/04/25 22:35:04;;;;;;;7.40;4.57;;;;;;;;;;10320931;28;20052;-58
2021/04/25 22:40:02;;;;;;;7.28;4.05;;;;;;;;;;10320563;28;20052;-59
2021/04/25 22:45:00;;;;;;;7.68;4.65;;;;;;;;;;10320131;28;20041;-59
2021/04/25 22:49:57;;;;;;;6.68;4.80;;;;;;;;;;10320589;28;20080;-59
2021/04/25 22:54:54;;;;;;;8.70;4.18;;;;;;;;;;10319794;28;20060;-59
2021/04/25 22:59:52;;;;;;;6.00;4.57;;;;;;;;;;10319338;28;20057;-59
2021/04/25 23:04:50;;;;;;;8.35;4.72;;;;;;;;;;10319656;28;20448;-56
2021/04/25 23:09:47;;;;;;;8.40;5.20;;;;;;;;;;10318415;28;20087;-59
2021/04/25 23:14:45;;;;;;;6.07;4.55;;;;;;;;;;10319076;28;20063;-59
2021/04/25 23:19:42;;;;;;;6.38;4.72;;;;;;;;;;10314711;28;20045;-59
2021/04/25 23:24:41;;;;;;;5.47;4.60;;;;;;;;;;10314854;28;20068;-59
2021/04/25 23:29:39;;;;;;;5.68;5.00;;;;;;;;;;10315002;28;20068;-59
2021/04/25 23:34:36;;;;;;;8.20;5.22;;;;;;;;;;10318683;28;20631;-58
2021/04/25 23:39:33;;;;;;;8.95;6.00;;;;;;;;;;10318314;28;20087;-60
2021/04/25 23:44:32;;;;;;;10.70;5.60;;;;;;;;;;10318107;28;20045;-59
2021/04/25 23:49:29;;;;;;;6.53;4.32;;;;;;;;;;10317890;28;20080;-59
2021/04/25 23:54:26;;;;;;;6.30;4.60;;;;;;;;;;10317771;28;20045;-59
2021/04/25 23:59:24;;;;;;;5.55;4.95;;;;;;;;;;10316199;28;20061;-58
